createdAt,value
2022-12-08T00:01:23.165Z,3.34
2022-12-08T00:03:50.496Z,3.35
2022-12-08T00:06:43.146Z,3.44
2022-12-08T00:09:39.180Z,3.48
2022-12-08T00:12:17.502Z,3.52
2022-12-08T00:14:46.757Z,3.56
2022-12-08T00:17:15.467Z,3.49
2022-12-08T00:19:42.895Z,3.40
2022-12-08T00:22:11.323Z,3.38
2022-12-08T00:24:39.953Z,3.45
2022-12-08T00:27:07.888Z,3.44
2022-12-08T00:29:34.294Z,3.39
2022-12-08T00:32:00.784Z,3.34
2022-12-08T00:34:27.228Z,3.32
2022-12-08T00:36:53.644Z,3.29
2022-12-08T00:39:20.199Z,3.29
2022-12-08T00:42:05.097Z,3.27
2022-12-08T00:44:31.559Z,3.24
2022-12-08T00:46:58.004Z,3.25
2022-12-08T00:49:24.623Z,3.27
2022-12-08T00:51:51.077Z,3.31
2022-12-08T00:54:18.286Z,3.33
2022-12-08T00:56:44.807Z,3.26
2022-12-08T00:59:11.225Z,3.25
2022-12-08T01:01:37.691Z,3.29
2022-12-08T01:04:10.426Z,3.35
2022-12-08T01:06:36.945Z,3.42
2022-12-08T01:09:06.133Z,3.43
2022-12-08T01:11:33.156Z,3.48
2022-12-08T01:13:59.619Z,3.46
2022-12-08T01:16:28.572Z,3.37
2022-12-08T01:18:56.407Z,3.35
2022-12-08T01:21:23.283Z,3.31
2022-12-08T01:23:49.748Z,3.31
2022-12-08T01:26:17.741Z,3.37
2022-12-08T01:28:45.184Z,3.38
2022-12-08T01:31:20.327Z,3.32
2022-12-08T01:33:47.478Z,3.33
2022-12-08T01:36:25.353Z,3.35
2022-12-08T01:38:52.645Z,3.35
2022-12-08T01:41:22.695Z,3.30
2022-12-08T01:44:08.738Z,3.25
2022-12-08T01:46:38.032Z,3.30
2022-12-08T01:49:35.564Z,3.34
2022-12-08T01:52:11.011Z,3.30
2022-12-08T01:55:05.596Z,3.23
2022-12-08T01:57:39.956Z,3.25
2022-12-08T02:00:11.372Z,3.29
2022-12-08T02:02:57.287Z,3.19
2022-12-08T02:05:27.668Z,3.25
2022-12-08T02:07:56.091Z,3.19
2022-12-08T02:10:24.165Z,3.17
2022-12-08T02:12:53.909Z,3.16
2022-12-08T02:15:28.716Z,3.14
2022-12-08T02:18:32.542Z,3.15
2022-12-08T02:21:29.472Z,3.26
2022-12-08T02:24:20.845Z,3.33
2022-12-08T02:27:18.522Z,3.41
2022-12-08T02:30:12.792Z,3.43
2022-12-08T02:32:45.148Z,3.43
2022-12-08T02:35:17.151Z,3.47
2022-12-08T02:38:01.420Z,3.49
2022-12-08T02:40:49.588Z,3.49
2022-12-08T02:43:32.146Z,3.49
2022-12-08T02:46:08.072Z,3.55
2022-12-08T02:48:35.096Z,3.52
2022-12-08T02:51:01.619Z,3.42
2022-12-08T02:53:33.330Z,3.40
2022-12-08T02:56:07.840Z,3.44
2022-12-08T02:58:42.802Z,3.47
2022-12-08T03:01:18.431Z,3.44
2022-12-08T03:04:13.370Z,3.45
2022-12-08T03:06:55.807Z,3.43
2022-12-08T03:09:42.042Z,3.48
2022-12-08T03:12:08.392Z,3.48
2022-12-08T03:14:36.371Z,3.55
2022-12-08T03:17:04.297Z,3.53
2022-12-08T03:19:35.579Z,3.49
2022-12-08T03:22:04.890Z,3.59
2022-12-08T03:24:37.073Z,3.61
2022-12-08T03:27:20.021Z,3.62
2022-12-08T03:29:52.042Z,3.63
2022-12-08T03:32:47.456Z,3.49
2022-12-08T03:35:20.096Z,3.52
2022-12-08T03:37:46.584Z,3.53
2022-12-08T03:40:17.091Z,3.58
2022-12-08T03:42:43.504Z,3.58
2022-12-08T03:45:10.372Z,3.60
2022-12-08T03:47:36.952Z,3.56
2022-12-08T03:50:04.343Z,3.54
2022-12-08T03:52:31.051Z,3.54
2022-12-08T03:54:57.479Z,3.50
2022-12-08T03:57:23.902Z,3.53
2022-12-08T03:59:50.293Z,3.59
2022-12-08T04:02:16.820Z,3.65
2022-12-08T04:04:44.185Z,3.65
2022-12-08T04:07:10.592Z,3.58
2022-12-08T04:09:37.026Z,3.52
2022-12-08T04:12:03.531Z,3.50
2022-12-08T04:14:30.000Z,3.62
2022-12-08T04:16:56.408Z,3.62
2022-12-08T04:19:22.799Z,3.67
2022-12-08T04:21:49.202Z,3.67
2022-12-08T04:24:15.674Z,3.66
2022-12-08T04:26:42.107Z,3.68
2022-12-08T04:29:08.510Z,3.63
2022-12-08T04:31:34.981Z,3.54
2022-12-08T04:34:01.452Z,3.54
2022-12-08T04:36:27.898Z,3.64
2022-12-08T04:38:54.318Z,3.72
2022-12-08T04:41:20.866Z,3.79
2022-12-08T04:43:47.287Z,3.78
2022-12-08T04:46:13.891Z,3.65
2022-12-08T04:48:41.470Z,3.65
2022-12-08T04:51:15.192Z,3.70
2022-12-08T04:53:46.317Z,3.66
2022-12-08T04:56:16.822Z,3.65
2022-12-08T04:58:43.960Z,3.66
2022-12-08T05:01:10.895Z,3.66
2022-12-08T05:03:37.435Z,3.69
2022-12-08T05:06:04.451Z,3.68
2022-12-08T05:08:32.041Z,3.72
2022-12-08T05:11:04.322Z,3.78
2022-12-08T05:13:30.865Z,3.73
2022-12-08T05:16:09.665Z,3.64
2022-12-08T05:18:37.140Z,3.60
2022-12-08T05:21:04.620Z,3.66
2022-12-08T05:23:31.533Z,3.66
2022-12-08T05:25:58.088Z,3.59
2022-12-08T05:28:42.307Z,3.50
2022-12-08T05:31:10.697Z,3.54
2022-12-08T05:33:37.199Z,3.59
2022-12-08T05:36:03.703Z,3.54
2022-12-08T05:38:30.204Z,3.59
2022-12-08T05:40:56.774Z,3.62
2022-12-08T05:43:23.217Z,3.56
2022-12-08T05:45:50.012Z,3.54
2022-12-08T05:48:16.596Z,3.58
2022-12-08T05:50:49.871Z,3.59
2022-12-08T05:53:18.073Z,3.56
2022-12-08T05:55:44.823Z,3.54
2022-12-08T05:58:19.544Z,3.50
2022-12-08T06:00:46.822Z,3.46
2022-12-08T06:03:15.064Z,3.52
2022-12-08T06:05:43.167Z,3.55
2022-12-08T06:08:10.121Z,3.49
2022-12-08T06:10:39.048Z,3.55
2022-12-08T06:13:05.496Z,3.53
2022-12-08T06:15:34.599Z,3.53
2022-12-08T06:18:01.062Z,3.54
2022-12-08T06:20:27.473Z,3.58
2022-12-08T06:22:57.369Z,3.61
2022-12-08T06:25:24.696Z,3.54
2022-12-08T06:27:51.156Z,3.63
2022-12-08T06:30:18.189Z,3.63
2022-12-08T06:32:44.680Z,3.64
2022-12-08T06:35:11.083Z,3.63
2022-12-08T06:37:37.483Z,3.63
2022-12-08T06:40:04.574Z,3.59
2022-12-08T06:42:49.388Z,3.55
2022-12-08T06:45:17.599Z,3.53
2022-12-08T06:47:44.222Z,3.53
2022-12-08T06:50:11.837Z,3.56
2022-12-08T06:52:46.762Z,3.54
2022-12-08T06:55:35.502Z,3.52
2022-12-08T06:58:02.459Z,3.50
2022-12-08T07:00:30.048Z,3.47
2022-12-08T07:02:56.569Z,3.48
2022-12-08T07:05:23.103Z,3.51
2022-12-08T07:07:49.595Z,3.52
2022-12-08T07:10:16.171Z,3.49
2022-12-08T07:12:42.610Z,3.48
2022-12-08T07:15:09.635Z,3.48
2022-12-08T07:17:36.053Z,3.46
2022-12-08T07:20:02.730Z,3.50
2022-12-08T07:22:29.384Z,3.46
2022-12-08T07:24:55.853Z,3.48
2022-12-08T07:27:22.256Z,3.49
2022-12-08T07:29:49.078Z,3.50
2022-12-08T07:32:15.532Z,3.54
2022-12-08T07:34:41.923Z,3.55
2022-12-08T07:37:08.354Z,3.53
2022-12-08T07:39:34.761Z,3.53
2022-12-08T07:42:01.150Z,3.41
2022-12-08T07:44:27.559Z,3.33
2022-12-08T07:46:53.965Z,3.34
2022-12-08T07:49:20.624Z,3.43
2022-12-08T07:51:47.023Z,3.45
2022-12-08T07:54:13.560Z,3.50
2022-12-08T07:56:40.004Z,3.55
2022-12-08T07:59:06.524Z,3.60
2022-12-08T08:01:35.127Z,3.66
2022-12-08T08:04:05.023Z,3.63
2022-12-08T08:06:36.896Z,3.55
2022-12-08T08:09:04.254Z,3.47
2022-12-08T08:11:30.756Z,3.47
2022-12-08T08:13:57.496Z,3.52
2022-12-08T08:16:24.041Z,3.51
2022-12-08T08:18:51.058Z,3.46
2022-12-08T08:24:05.432Z,3.53
2022-12-08T08:26:31.868Z,3.59
2022-12-08T08:28:58.277Z,3.61
2022-12-08T08:31:26.965Z,3.61
2022-12-08T08:33:53.992Z,3.60
2022-12-08T08:36:21.984Z,3.59
2022-12-08T08:38:48.474Z,3.55
2022-12-08T08:41:14.936Z,3.58
2022-12-08T08:43:41.457Z,3.56
2022-12-08T08:46:08.970Z,3.63
2022-12-08T08:48:36.174Z,3.73
2022-12-08T08:51:13.926Z,3.72
2022-12-08T08:53:41.586Z,3.75
2022-12-08T08:56:09.968Z,3.80
2022-12-08T08:58:36.685Z,3.85
2022-12-08T09:01:03.285Z,3.89
2022-12-08T09:03:29.699Z,3.95
2022-12-08T09:05:56.660Z,3.97
2022-12-08T09:08:23.783Z,3.98
2022-12-08T09:10:50.389Z,3.97
2022-12-08T09:13:16.802Z,4.01
2022-12-08T09:15:43.288Z,4.07
2022-12-08T09:18:09.891Z,4.14
2022-12-08T09:20:36.650Z,4.26
2022-12-08T09:23:03.494Z,4.28
2022-12-08T09:25:30.144Z,4.29
2022-12-08T09:27:56.744Z,4.34
2022-12-08T09:30:23.531Z,4.45
2022-12-08T09:32:50.406Z,4.45
2022-12-08T09:35:17.093Z,4.46
2022-12-08T09:37:43.624Z,4.60
2022-12-08T09:40:15.428Z,4.64
2022-12-08T09:42:51.558Z,4.58
2022-12-08T09:45:19.335Z,4.60
2022-12-08T09:47:59.525Z,4.55
2022-12-08T09:50:43.354Z,4.71
2022-12-08T09:53:16.978Z,4.79
2022-12-08T09:56:04.476Z,4.91
2022-12-08T09:59:01.935Z,4.90
2022-12-08T10:01:31.606Z,4.86
2022-12-08T10:03:58.832Z,4.85
2022-12-08T10:07:04.859Z,4.94
2022-12-08T10:10:13.387Z,5.07
2022-12-08T10:12:54.109Z,4.91
2022-12-08T10:15:27.139Z,4.90
2022-12-08T10:17:55.040Z,4.91
2022-12-08T10:20:26.778Z,4.87
2022-12-08T10:23:07.213Z,5.02
2022-12-08T10:25:39.025Z,5.03
2022-12-08T10:28:05.766Z,4.98
2022-12-08T10:30:32.472Z,5.02
2022-12-08T10:33:00.255Z,5.02
2022-12-08T10:35:46.759Z,5.13
2022-12-08T10:38:37.424Z,5.13
2022-12-08T10:41:09.834Z,5.08
2022-12-08T10:43:44.868Z,5.15
2022-12-08T10:46:22.496Z,5.20
2022-12-08T10:48:49.110Z,5.26
2022-12-08T10:51:39.135Z,5.33
2022-12-08T10:54:24.613Z,5.39
2022-12-08T10:56:56.208Z,5.44
2022-12-08T10:59:25.659Z,5.46
2022-12-08T11:01:54.940Z,5.41
2022-12-08T11:04:40.147Z,5.47
2022-12-08T11:07:11.582Z,5.57
2022-12-08T11:09:48.726Z,5.68
2022-12-08T11:12:20.217Z,5.71
2022-12-08T11:14:55.872Z,5.72
2022-12-08T11:17:22.259Z,5.72
2022-12-08T11:20:09.061Z,5.57
2022-12-08T11:22:43.980Z,5.49
2022-12-08T11:25:11.873Z,5.54
2022-12-08T11:27:43.395Z,5.57
2022-12-08T11:30:15.581Z,5.58
2022-12-08T11:32:44.856Z,5.58
2022-12-08T11:35:18.573Z,5.53
2022-12-08T11:37:45.108Z,5.62
2022-12-08T11:40:31.450Z,5.65
2022-12-08T11:43:34.592Z,5.69
2022-12-08T11:46:04.641Z,5.78
2022-12-08T11:48:46.321Z,5.81
2022-12-08T11:51:28.677Z,5.77
2022-12-08T11:54:22.450Z,5.79
2022-12-08T11:56:52.821Z,5.72
2022-12-08T11:59:25.004Z,5.66
2022-12-08T12:01:51.704Z,5.66
2022-12-08T12:04:42.651Z,5.74
2022-12-08T12:07:33.453Z,5.69
2022-12-08T12:10:37.718Z,5.77
2022-12-08T12:13:47.747Z,5.78
2022-12-08T12:16:29.377Z,5.78
2022-12-08T12:19:04.777Z,5.75
2022-12-08T12:21:34.343Z,5.78
2022-12-08T12:24:08.815Z,5.75
2022-12-08T12:26:38.085Z,5.77
2022-12-08T12:29:17.894Z,5.81
2022-12-08T12:31:51.930Z,5.80
2022-12-08T12:34:25.782Z,5.80
2022-12-08T12:37:23.239Z,5.89
2022-12-08T12:39:52.680Z,5.87
2022-12-08T12:42:44.052Z,5.85
2022-12-08T12:45:33.067Z,5.87
2022-12-08T12:47:59.877Z,5.86
2022-12-08T12:50:49.863Z,5.87
2022-12-08T12:53:16.256Z,5.86
2022-12-08T12:55:45.991Z,5.79
2022-12-08T12:58:27.479Z,5.78
2022-12-08T13:01:12.727Z,5.82
2022-12-08T13:03:42.268Z,5.83
2022-12-08T13:06:14.675Z,5.88
2022-12-08T13:08:51.037Z,5.94
2022-12-08T13:11:17.660Z,5.98
2022-12-08T13:14:03.986Z,6.01
2022-12-08T13:16:37.519Z,6.06
2022-12-08T13:19:11.939Z,6.04
2022-12-08T13:21:39.473Z,6.07
2022-12-08T13:24:17.937Z,6.10
2022-12-08T13:27:03.657Z,6.05
2022-12-08T13:29:40.381Z,6.04
2022-12-08T13:32:09.721Z,6.08
2022-12-08T13:35:00.180Z,6.16
2022-12-08T13:37:31.630Z,6.18
2022-12-08T13:40:02.370Z,6.22
2022-12-08T13:42:49.929Z,6.12
2022-12-08T13:45:59.048Z,6.02
2022-12-08T13:49:31.985Z,6.01
2022-12-08T13:57:37.533Z,6.11
2022-12-08T14:00:15.226Z,6.14
2022-12-08T14:02:47.792Z,6.16
2022-12-08T14:05:18.524Z,6.13
2022-12-08T14:07:49.854Z,6.08
2022-12-08T14:10:29.322Z,6.05
2022-12-08T14:13:00.432Z,6.04
2022-12-08T14:15:30.225Z,6.08
2022-12-08T14:18:00.780Z,6.07
2022-12-08T14:20:30.355Z,6.08
2022-12-08T14:22:59.343Z,6.11
2022-12-08T14:25:28.009Z,6.16
2022-12-08T14:28:03.018Z,6.18
2022-12-08T14:30:32.578Z,6.19
2022-12-08T14:33:00.945Z,6.13
2022-12-08T14:35:30.064Z,6.10
2022-12-08T14:38:01.887Z,6.10
2022-12-08T14:40:35.961Z,6.10
2022-12-08T14:43:08.663Z,6.12
2022-12-08T14:45:45.965Z,6.08
2022-12-08T14:48:22.921Z,6.07
2022-12-08T14:50:55.521Z,6.08
2022-12-08T14:53:22.608Z,6.06
2022-12-08T14:55:50.263Z,6.04
2022-12-08T14:58:27.607Z,6.05
2022-12-08T15:00:58.842Z,6.03
2022-12-08T15:03:28.927Z,5.99
2022-12-08T15:06:01.542Z,6.01
2022-12-08T15:08:28.068Z,5.96
2022-12-08T15:11:26.226Z,5.86
2022-12-08T15:13:54.351Z,5.80
2022-12-08T15:16:40.617Z,5.77
2022-12-08T15:19:28.452Z,5.66
2022-12-08T15:21:57.898Z,5.61
2022-12-08T15:24:28.324Z,5.54
2022-12-08T15:26:55.036Z,5.48
2022-12-08T15:29:27.046Z,5.43
2022-12-08T15:31:56.733Z,5.43
2022-12-08T15:34:23.510Z,5.38
2022-12-08T15:36:52.139Z,5.34
2022-12-08T15:39:44.857Z,5.31
2022-12-08T15:42:15.443Z,5.31
2022-12-08T15:44:42.528Z,5.30
2022-12-08T15:47:20.298Z,5.38
2022-12-08T15:49:48.076Z,5.44
2022-12-08T15:52:17.039Z,5.36
2022-12-08T15:54:43.687Z,5.31
2022-12-08T15:57:22.248Z,5.36
2022-12-08T15:59:56.515Z,5.42
2022-12-08T16:02:25.055Z,5.40
2022-12-08T16:07:39.394Z,5.26
2022-12-08T16:10:07.817Z,5.24
2022-12-08T16:15:59.256Z,5.30
2022-12-08T16:18:30.248Z,5.29
2022-12-08T16:23:44.906Z,5.33
2022-12-08T16:26:39.403Z,5.38
2022-12-08T16:29:05.577Z,5.44
2022-12-08T16:31:32.649Z,5.47
2022-12-08T16:33:59.322Z,5.46
2022-12-08T16:36:25.767Z,5.41
2022-12-08T16:38:52.219Z,5.38
2022-12-08T16:41:37.387Z,5.34
2022-12-08T16:44:05.407Z,5.35
2022-12-08T16:46:32.227Z,5.42
2022-12-08T16:48:59.004Z,5.43
2022-12-08T16:51:27.289Z,5.43
2022-12-08T16:53:58.281Z,5.42
2022-12-08T16:56:32.308Z,5.42
2022-12-08T16:58:59.837Z,5.43
2022-12-08T17:01:26.384Z,5.41
2022-12-08T17:04:22.642Z,5.36
2022-12-08T17:06:39.550Z,5.34
2022-12-08T17:09:06.102Z,5.37
2022-12-08T17:11:36.278Z,5.40
2022-12-08T17:14:09.125Z,5.39
2022-12-08T17:16:35.746Z,5.40
2022-12-08T17:19:02.456Z,5.42
2022-12-08T17:21:28.941Z,5.42
2022-12-08T17:23:55.460Z,5.43
2022-12-08T17:26:21.843Z,5.41
2022-12-08T17:29:03.509Z,5.35
2022-12-08T17:31:31.454Z,5.29
2022-12-08T17:34:09.524Z,5.28
2022-12-08T17:36:36.076Z,5.29
2022-12-08T17:39:03.244Z,5.33
2022-12-08T17:41:30.037Z,5.37
2022-12-08T17:43:56.916Z,5.32
2022-12-08T17:46:23.399Z,5.31
2022-12-08T17:48:49.873Z,5.34
2022-12-08T17:51:16.477Z,5.33
2022-12-08T17:53:43.373Z,5.37
2022-12-08T17:56:19.404Z,5.38
2022-12-08T17:58:49.840Z,5.38
2022-12-08T18:01:19.359Z,5.40
2022-12-08T18:03:45.865Z,5.40
2022-12-08T18:06:12.625Z,5.36
2022-12-08T18:08:39.858Z,5.35
2022-12-08T18:11:12.651Z,5.37
2022-12-08T18:13:39.200Z,5.36
2022-12-08T18:16:05.837Z,5.35
2022-12-08T18:18:32.298Z,5.34
2022-12-08T18:20:58.718Z,5.39
2022-12-08T18:23:25.184Z,5.39
2022-12-08T18:25:51.619Z,5.43
2022-12-08T18:28:18.084Z,5.43
2022-12-08T18:30:44.561Z,5.41
2022-12-08T18:33:11.086Z,5.39
2022-12-08T18:35:39.484Z,5.37
2022-12-08T18:38:06.090Z,5.32
2022-12-08T18:40:32.512Z,5.36
2022-12-08T18:42:59.256Z,5.36
2022-12-08T18:45:25.685Z,5.36
2022-12-08T18:47:52.281Z,5.32
2022-12-08T18:50:18.950Z,5.22
2022-12-08T18:52:46.371Z,5.26
2022-12-08T18:55:13.496Z,5.31
2022-12-08T18:57:43.751Z,5.32
2022-12-08T19:00:13.538Z,5.31
2022-12-08T19:02:40.909Z,5.28
2022-12-08T19:05:09.581Z,5.30
2022-12-08T19:07:36.385Z,5.28
2022-12-08T19:10:04.094Z,5.27
2022-12-08T19:12:31.145Z,5.29
2022-12-08T19:14:57.957Z,5.31
2022-12-08T19:17:25.775Z,5.29
2022-12-08T19:19:52.255Z,5.20
2022-12-08T19:22:18.666Z,5.26
2022-12-08T19:24:45.075Z,5.28
2022-12-08T19:27:11.527Z,5.28
2022-12-08T19:29:37.941Z,5.29
2022-12-08T19:32:05.225Z,5.29
2022-12-08T19:34:31.804Z,5.30
2022-12-08T19:36:58.328Z,5.29
2022-12-08T19:39:43.336Z,5.26
2022-12-08T19:42:37.266Z,5.29
2022-12-08T19:45:10.068Z,5.31
2022-12-08T19:47:36.630Z,5.31
2022-12-08T19:50:22.568Z,5.26
2022-12-08T19:52:49.068Z,5.26
2022-12-08T19:55:15.769Z,5.28
2022-12-08T19:57:42.254Z,5.27
2022-12-08T20:00:10.767Z,5.23
2022-12-08T20:02:37.530Z,5.23
2022-12-08T20:05:06.095Z,5.31
2022-12-08T20:07:32.896Z,5.26
2022-12-08T20:09:59.308Z,5.29
2022-12-08T20:12:25.860Z,5.27
2022-12-08T20:14:52.403Z,5.22
2022-12-08T20:17:19.406Z,5.28
2022-12-08T20:19:45.936Z,5.29
2022-12-08T20:22:12.380Z,5.26
2022-12-08T20:24:38.813Z,5.25
2022-12-08T20:27:05.288Z,5.23
2022-12-08T20:29:31.832Z,5.27
2022-12-08T20:31:58.502Z,5.31
2022-12-08T20:34:24.996Z,5.35
2022-12-08T20:36:51.643Z,5.31
2022-12-08T20:39:19.083Z,5.27
2022-12-08T20:41:46.667Z,5.29
2022-12-08T20:44:13.259Z,5.33
2022-12-08T20:46:41.854Z,5.30
2022-12-08T20:49:11.649Z,5.27
2022-12-08T20:51:38.118Z,5.23
2022-12-08T20:54:04.722Z,5.23
2022-12-08T20:56:32.518Z,5.19
2022-12-08T20:58:59.239Z,5.18
2022-12-08T21:01:26.043Z,5.21
2022-12-08T21:03:52.904Z,5.22
2022-12-08T21:06:24.537Z,5.17
2022-12-08T21:08:51.218Z,5.15
2022-12-08T21:11:17.859Z,5.13
2022-12-08T21:13:45.150Z,5.13
2022-12-08T21:16:14.433Z,5.10
2022-12-08T21:18:41.888Z,5.12
2022-12-08T21:21:12.577Z,5.19
2022-12-08T21:23:39.647Z,5.19
2022-12-08T21:26:18.178Z,5.17
2022-12-08T21:28:45.287Z,5.18
2022-12-08T21:31:15.559Z,5.19
2022-12-08T21:33:42.388Z,5.23
2022-12-08T21:36:12.810Z,5.27
2022-12-08T21:38:39.834Z,5.27
2022-12-08T21:41:09.449Z,5.27
2022-12-08T21:43:36.344Z,5.27
2022-12-08T21:46:03.395Z,5.28
2022-12-08T21:48:30.014Z,5.32
2022-12-08T21:50:56.924Z,5.33
2022-12-08T21:53:26.445Z,5.27
2022-12-08T21:55:53.237Z,5.26
2022-12-08T21:58:19.772Z,5.27
2022-12-08T22:00:46.541Z,5.26
2022-12-08T22:03:14.827Z,5.27
2022-12-08T22:05:42.474Z,5.29
2022-12-08T22:08:09.262Z,5.28
2022-12-08T22:10:35.976Z,5.29
2022-12-08T22:13:02.572Z,5.30
2022-12-08T22:15:29.776Z,5.31
2022-12-08T22:17:56.867Z,5.30
2022-12-08T22:20:23.749Z,5.33
2022-12-08T22:22:50.395Z,5.30
2022-12-08T22:25:16.917Z,5.29
2022-12-08T22:27:43.573Z,5.29
2022-12-08T22:30:11.562Z,5.28
2022-12-08T22:32:38.544Z,5.22
2022-12-08T22:35:05.585Z,5.22
2022-12-08T22:37:32.292Z,5.23
2022-12-08T22:39:58.821Z,5.22
2022-12-08T22:42:25.411Z,5.26
2022-12-08T22:44:51.791Z,5.27
2022-12-08T22:47:18.316Z,5.30
2022-12-08T22:49:44.867Z,5.22
2022-12-08T22:52:11.301Z,5.18
2022-12-08T22:54:37.929Z,5.20
2022-12-08T22:57:04.442Z,5.24
2022-12-08T22:59:33.280Z,5.26
2022-12-08T23:01:59.854Z,5.28
2022-12-08T23:04:26.705Z,5.28
2022-12-08T23:06:53.166Z,5.29
2022-12-08T23:09:19.796Z,5.26
2022-12-08T23:11:46.299Z,5.27
2022-12-08T23:14:12.936Z,5.27
2022-12-08T23:16:39.704Z,5.15
2022-12-08T23:19:06.755Z,5.08
2022-12-08T23:21:33.222Z,5.05
2022-12-08T23:24:01.297Z,5.05
2022-12-08T23:26:29.797Z,5.11
2022-12-08T23:28:57.328Z,5.17
2022-12-08T23:31:24.868Z,5.18
2022-12-08T23:33:52.110Z,5.16
2022-12-08T23:36:19.938Z,5.15
2022-12-08T23:38:47.249Z,5.15
2022-12-08T23:41:15.590Z,5.11
2022-12-08T23:43:48.021Z,4.99
2022-12-08T23:46:16.293Z,4.94
2022-12-08T23:48:42.836Z,4.92
2022-12-08T23:51:10.143Z,4.98
2022-12-08T23:53:36.798Z,4.98
2022-12-08T23:56:09.270Z,5.00
2022-12-08T23:58:36.642Z,4.99
